Aérodrome :
LOGIN :

S'inscrire | Disclaimer

   EN    FR    IT 

 










Légende :    VFR   VFR Marginal   IFR   IFR Intensif   IFR Très Intensif
Visi : 
Plafond : 
>= 8 km
>= 3000ft
5 à 8 km
1000 à 3000 ft
1500m à 5 km
500 à 1000 ft
800 à 1500m
200 à 500 ft
< 800m
< 200 ft
Symboles :   Orages  Brouillard  Fortes neiges  Fortes précipitations  Vent > 20 kt
SIGMETs :   Divers  Orages  Givrage  Turbulence  Onde Orograph.  Cendres Volcan.







- Altitude de l'aérodrome : 302 ft
- Voir les cartes d'approche


LFPM - Melun Villaroche

DERNIER METAR :
  • 231200Z AUTO 11009KT 9999 FEW034 BKN042 BKN066 14/08 Q1009

METARs EXPIRÉS :
  • 231130Z AUTO 11010KT 9999 FEW035 SCT084 BKN200 13/07 Q1009
  • 231100Z AUTO 11009KT CAVOK 12/08 Q1009
  • 231030Z AUTO 12007KT CAVOK 11/08 Q1009
  • 231000Z AUTO 14011KT 9999 -RA ///TCU 10/07 Q1009
  • 230930Z AUTO 16011KT CAVOK 11/06 Q1009
  • 230900Z AUTO 13007KT CAVOK 10/06 Q1009

Prévision TAF périmée.
ATIS : +33 1 64 14 28 44
Pas de NOTAMs connus pour ce terrain.



MET'MAP, la Météo Aéronautique d'un coup d'oeil ! - Copyright ORBIFLY Décembre 2007 - Disclaimer

ORBIFLY MET'MAP TEAM :

Programmation & Développement : Alexandra Zaïnal
Conception & Développement : Baudouin d'Aumeries
Co-Programmation & Développement : Marc-Olivier Méhu
Soutien technique & logistique : Manuel Goepfert

Contact : metmap@orbifly.com




SOURCES & CREDITS :

   NOAA